Avondale Estates, Georgia
Current Conditions -  °F | °C
As of 10:53 PM on Tuesday 25 Nov 2014 (Local Time) from KPDK Reporting Station
Overcast Overcast  
Wind Chill: 50°   Ceiling: 9500
Heat Index: 50°   Visibility: 10mi
Dew Point: 31°   Wind: 3mph
Humidity: 48%   Direction: 160°SSE
Pressure: 30.03"   Gusts: NA
Location:  33.77°N, 84.27°W
Report Text: KPDK 260353Z AUTO 16003KT 10SM OVC095 10/M01 A3003 RMK AO2 SLP172 T01001006
Loading
Personal Weather Stations






























Interactive Weather Map New forecast layout! Learn more

10-Day Weather Forecast

Advertisements
Track Severe Weather on mobile